sensor_id;sensor_type;location;lat;lon;timestamp;P1;durP1;ratioP1;P2;durP2;ratioP2
10166;SDS011;62970;53.130;8.244;2024-03-23T00:52:54;10.77;;;3.60;;
10166;SDS011;62970;53.130;8.244;2024-03-23T00:55:23;11.33;;;3.37;;
10166;SDS011;62970;53.130;8.244;2024-03-23T00:57:49;9.30;;;3.07;;
10166;SDS011;62970;53.130;8.244;2024-03-23T01:00:16;13.43;;;3.00;;
10166;SDS011;62970;53.130;8.244;2024-03-23T01:02:43;11.50;;;3.77;;
10166;SDS011;62970;53.130;8.244;2024-03-23T01:05:09;10.63;;;3.57;;
10166;SDS011;62970;53.130;8.244;2024-03-23T01:07:36;13.63;;;3.87;;
10166;SDS011;62970;53.130;8.244;2024-03-23T01:10:02;11.07;;;3.17;;
10166;SDS011;62970;53.130;8.244;2024-03-23T01:12:32;11.10;;;4.00;;
10166;SDS011;62970;53.130;8.244;2024-03-23T01:14:59;8.47;;;3.50;;
10166;SDS011;62970;53.130;8.244;2024-03-23T01:17:25;10.50;;;3.80;;
10166;SDS011;62970;53.130;8.244;2024-03-23T01:19:52;12.67;;;3.60;;
10166;SDS011;62970;53.130;8.244;2024-03-23T01:22:18;9.50;;;3.27;;
10166;SDS011;62970;53.130;8.244;2024-03-23T01:24:45;9.80;;;3.20;;
10166;SDS011;62970;53.130;8.244;2024-03-23T01:27:11;9.80;;;3.50;;
10166;SDS011;62970;53.130;8.244;2024-03-23T01:29:40;10.57;;;3.60;;
10166;SDS011;62970;53.130;8.244;2024-03-23T01:32:07;8.97;;;3.20;;
10166;SDS011;62970;53.130;8.244;2024-03-23T01:34:33;11.00;;;3.47;;
10166;SDS011;62970;53.130;8.244;2024-03-23T01:36:59;10.47;;;3.50;;
10166;SDS011;62970;53.130;8.244;2024-03-23T01:39:26;10.50;;;3.87;;
10166;SDS011;62970;53.130;8.244;2024-03-23T01:41:53;13.97;;;3.90;;
10166;SDS011;62970;53.130;8.244;2024-03-23T01:44:19;10.27;;;3.30;;
10166;SDS011;62970;53.130;8.244;2024-03-23T01:46:48;10.23;;;3.53;;
10166;SDS011;62970;53.130;8.244;2024-03-23T01:49:15;12.90;;;3.47;;
10166;SDS011;62970;53.130;8.244;2024-03-23T01:51:42;9.47;;;3.30;;
10166;SDS011;62970;53.130;8.244;2024-03-23T01:54:10;16.83;;;3.33;;
10166;SDS011;62970;53.130;8.244;2024-03-23T01:56:36;11.13;;;3.80;;
10166;SDS011;62970;53.130;8.244;2024-03-23T01:59:03;9.83;;;3.30;;
10166;SDS011;62970;53.130;8.244;2024-03-23T02:01:30;12.27;;;3.30;;
10166;SDS011;62970;53.130;8.244;2024-03-23T02:04:00;14.03;;;3.73;;
10166;SDS011;62970;53.130;8.244;2024-03-23T02:06:26;10.17;;;3.53;;
10166;SDS011;62970;53.130;8.244;2024-03-23T02:08:53;10.13;;;3.63;;
10166;SDS011;62970;53.130;8.244;2024-03-23T02:11:20;10.23;;;3.50;;
10166;SDS011;62970;53.130;8.244;2024-03-23T02:13:47;9.17;;;3.33;;
10166;SDS011;62970;53.130;8.244;2024-03-23T02:16:13;12.57;;;4.23;;
10166;SDS011;62970;53.130;8.244;2024-03-23T02:18:40;8.37;;;3.27;;
10166;SDS011;62970;53.130;8.244;2024-03-23T02:21:09;9.97;;;3.40;;
10166;SDS011;62970;53.130;8.244;2024-03-23T02:23:38;8.27;;;3.37;;
10166;SDS011;62970;53.130;8.244;2024-03-23T02:26:05;12.10;;;3.80;;
10166;SDS011;62970;53.130;8.244;2024-03-23T02:28:31;13.17;;;3.93;;
10166;SDS011;62970;53.130;8.244;2024-03-23T02:30:58;6.77;;;3.13;;
10166;SDS011;62970;53.130;8.244;2024-03-23T02:33:24;12.67;;;3.60;;
10166;SDS011;62970;53.130;8.244;2024-03-23T02:35:51;8.70;;;3.43;;
10166;SDS011;62970;53.130;8.244;2024-03-23T02:38:22;12.23;;;3.80;;
10166;SDS011;62970;53.130;8.244;2024-03-23T02:40:51;8.50;;;3.43;;
10166;SDS011;62970;53.130;8.244;2024-03-23T02:43:17;12.67;;;3.67;;
10166;SDS011;62970;53.130;8.244;2024-03-23T02:45:43;9.57;;;3.10;;
10166;SDS011;62970;53.130;8.244;2024-03-23T02:48:10;13.57;;;3.60;;
10166;SDS011;62970;53.130;8.244;2024-03-23T02:50:36;10.43;;;3.57;;
10166;SDS011;62970;53.130;8.244;2024-03-23T02:53:03;12.10;;;3.53;;
10166;SDS011;62970;53.130;8.244;2024-03-23T02:55:29;10.33;;;3.33;;
10166;SDS011;62970;53.130;8.244;2024-03-23T02:57:58;10.47;;;3.33;;
10166;SDS011;62970;53.130;8.244;2024-03-23T03:00:25;9.20;;;3.27;;
10166;SDS011;62970;53.130;8.244;2024-03-23T03:02:51;9.73;;;3.60;;
10166;SDS011;62970;53.130;8.244;2024-03-23T03:05:18;10.67;;;3.73;;
10166;SDS011;62970;53.130;8.244;2024-03-23T03:07:44;8.67;;;3.43;;
10166;SDS011;62970;53.130;8.244;2024-03-23T03:10:14;9.40;;;3.70;;
10166;SDS011;62970;53.130;8.244;2024-03-23T03:12:40;9.57;;;3.80;;
10166;SDS011;62970;53.130;8.244;2024-03-23T03:15:10;11.23;;;3.30;;
10166;SDS011;62970;53.130;8.244;2024-03-23T03:17:36;12.70;;;3.50;;
10166;SDS011;62970;53.130;8.244;2024-03-23T03:20:03;12.57;;;3.70;;
10166;SDS011;62970;53.130;8.244;2024-03-23T03:22:31;10.00;;;3.73;;
10166;SDS011;62970;53.130;8.244;2024-03-23T03:24:57;10.50;;;3.50;;
10166;SDS011;62970;53.130;8.244;2024-03-23T03:27:24;10.93;;;3.80;;
10166;SDS011;62970;53.130;8.244;2024-03-23T03:29:51;9.63;;;3.70;;
10166;SDS011;62970;53.130;8.244;2024-03-23T03:32:20;9.83;;;3.77;;
10166;SDS011;62970;53.130;8.244;2024-03-23T03:34:46;10.90;;;3.87;;
10166;SDS011;62970;53.130;8.244;2024-03-23T03:37:13;11.03;;;3.57;;
10166;SDS011;62970;53.130;8.244;2024-03-23T03:39:39;11.37;;;3.53;;
10166;SDS011;62970;53.130;8.244;2024-03-23T03:42:06;11.13;;;3.83;;
10166;SDS011;62970;53.130;8.244;2024-03-23T03:44:32;10.83;;;3.57;;
10166;SDS011;62970;53.130;8.244;2024-03-23T03:46:59;9.53;;;3.20;;
10166;SDS011;62970;53.130;8.244;2024-03-23T03:49:28;11.33;;;3.93;;
10166;SDS011;62970;53.130;8.244;2024-03-23T03:51:54;9.40;;;3.40;;
10166;SDS011;62970;53.130;8.244;2024-03-23T03:54:21;12.10;;;3.70;;
10166;SDS011;62970;53.130;8.244;2024-03-23T03:56:47;13.13;;;3.90;;
10166;SDS011;62970;53.130;8.244;2024-03-23T03:59:13;9.10;;;3.80;;
10166;SDS011;62970;53.130;8.244;2024-03-23T04:01:40;9.53;;;3.43;;
10166;SDS011;62970;53.130;8.244;2024-03-23T04:04:07;12.17;;;4.13;;
10166;SDS011;62970;53.130;8.244;2024-03-23T04:06:36;10.57;;;3.37;;
10166;SDS011;62970;53.130;8.244;2024-03-23T04:09:03;14.00;;;4.17;;
10166;SDS011;62970;53.130;8.244;2024-03-23T04:11:29;10.33;;;3.67;;
10166;SDS011;62970;53.130;8.244;2024-03-23T04:13:56;9.63;;;3.33;;
10166;SDS011;62970;53.130;8.244;2024-03-23T04:16:26;10.33;;;3.33;;
10166;SDS011;62970;53.130;8.244;2024-03-23T04:18:53;10.57;;;3.47;;
10166;SDS011;62970;53.130;8.244;2024-03-23T04:21:19;11.83;;;4.00;;
10166;SDS011;62970;53.130;8.244;2024-03-23T04:23:49;8.27;;;3.27;;
10166;SDS011;62970;53.130;8.244;2024-03-23T04:26:16;13.00;;;3.70;;
10166;SDS011;62970;53.130;8.244;2024-03-23T04:28:42;7.97;;;2.93;;
10166;SDS011;62970;53.130;8.244;2024-03-23T04:31:09;9.73;;;3.47;;
10166;SDS011;62970;53.130;8.244;2024-03-23T04:33:35;11.40;;;3.63;;
10166;SDS011;62970;53.130;8.244;2024-03-23T04:36:02;9.97;;;3.43;;
10166;SDS011;62970;53.130;8.244;2024-03-23T04:38:29;10.13;;;3.33;;
10166;SDS011;62970;53.130;8.244;2024-03-23T04:40:59;8.27;;;3.27;;
10166;SDS011;62970;53.130;8.244;2024-03-23T04:43:25;11.37;;;3.70;;
10166;SDS011;62970;53.130;8.244;2024-03-23T04:45:52;8.63;;;3.10;;
10166;SDS011;62970;53.130;8.244;2024-03-23T04:48:20;12.73;;;3.43;;
10166;SDS011;62970;53.130;8.244;2024-03-23T04:50:48;10.23;;;3.87;;
10166;SDS011;62970;53.130;8.244;2024-03-23T04:53:14;7.57;;;3.10;;
10166;SDS011;62970;53.130;8.244;2024-03-23T04:55:41;10.27;;;3.33;;
10166;SDS011;62970;53.130;8.244;2024-03-23T04:58:10;10.07;;;3.47;;
10166;SDS011;62970;53.130;8.244;2024-03-23T05:00:37;8.07;;;3.00;;
10166;SDS011;62970;53.130;8.244;2024-03-23T05:03:04;8.90;;;3.30;;
10166;SDS011;62970;53.130;8.244;2024-03-23T05:05:31;12.10;;;3.40;;
10166;SDS011;62970;53.130;8.244;2024-03-23T05:07:58;13.77;;;3.47;;
10166;SDS011;62970;53.130;8.244;2024-03-23T05:10:25;11.67;;;3.27;;
10166;SDS011;62970;53.130;8.244;2024-03-23T05:12:51;9.90;;;3.57;;
10166;SDS011;62970;53.130;8.244;2024-03-23T05:15:20;6.13;;;3.27;;
10166;SDS011;62970;53.130;8.244;2024-03-23T05:17:46;10.27;;;3.77;;
10166;SDS011;62970;53.130;8.244;2024-03-23T05:20:13;12.17;;;3.53;;
10166;SDS011;62970;53.130;8.244;2024-03-23T05:22:39;9.03;;;3.27;;
10166;SDS011;62970;53.130;8.244;2024-03-23T05:25:06;12.67;;;3.70;;
10166;SDS011;62970;53.130;8.244;2024-03-23T05:27:33;8.83;;;3.50;;
10166;SDS011;62970;53.130;8.244;2024-03-23T05:30:00;8.57;;;3.20;;
10166;SDS011;62970;53.130;8.244;2024-03-23T05:32:29;11.97;;;3.93;;
10166;SDS011;62970;53.130;8.244;2024-03-23T05:34:55;9.17;;;3.30;;
10166;SDS011;62970;53.130;8.244;2024-03-23T05:37:22;11.27;;;3.17;;
10166;SDS011;62970;53.130;8.244;2024-03-23T05:39:49;10.23;;;3.37;;
10166;SDS011;62970;53.130;8.244;2024-03-23T05:42:16;12.17;;;3.60;;
10166;SDS011;62970;53.130;8.244;2024-03-23T05:44:43;10.77;;;3.40;;
10166;SDS011;62970;53.130;8.244;2024-03-23T05:47:10;7.67;;;3.30;;
10166;SDS011;62970;53.130;8.244;2024-03-23T05:49:41;10.37;;;3.43;;
10166;SDS011;62970;53.130;8.244;2024-03-23T05:52:08;9.17;;;3.53;;
10166;SDS011;62970;53.130;8.244;2024-03-23T05:54:35;10.73;;;4.00;;
10166;SDS011;62970;53.130;8.244;2024-03-23T05:57:03;9.80;;;3.90;;
10166;SDS011;62970;53.130;8.244;2024-03-23T05:59:30;7.77;;;3.60;;
10166;SDS011;62970;53.130;8.244;2024-03-23T06:01:57;8.30;;;3.53;;
10166;SDS011;62970;53.130;8.244;2024-03-23T06:04:25;12.83;;;3.93;;
10166;SDS011;62970;53.130;8.244;2024-03-23T06:06:54;11.00;;;3.97;;
10166;SDS011;62970;53.130;8.244;2024-03-23T06:09:22;12.57;;;4.30;;
10166;SDS011;62970;53.130;8.244;2024-03-23T06:11:50;11.77;;;4.17;;
10166;SDS011;62970;53.130;8.244;2024-03-23T06:14:17;14.67;;;5.17;;
10166;SDS011;62970;53.130;8.244;2024-03-23T06:16:44;15.60;;;5.70;;
10166;SDS011;62970;53.130;8.244;2024-03-23T06:19:11;13.80;;;6.23;;
10166;SDS011;62970;53.130;8.244;2024-03-23T06:21:42;14.13;;;5.23;;
10166;SDS011;62970;53.130;8.244;2024-03-23T06:24:13;13.30;;;5.27;;
10166;SDS011;62970;53.130;8.244;2024-03-23T06:26:39;13.33;;;4.60;;
10166;SDS011;62970;53.130;8.244;2024-03-23T06:29:06;11.87;;;4.40;;
10166;SDS011;62970;53.130;8.244;2024-03-23T06:31:33;13.33;;;4.27;;
10166;SDS011;62970;53.130;8.244;2024-03-23T06:34:01;10.93;;;4.13;;
10166;SDS011;62970;53.130;8.244;2024-03-23T06:36:28;13.37;;;4.60;;
10166;SDS011;62970;53.130;8.244;2024-03-23T06:38:57;12.73;;;3.80;;
10166;SDS011;62970;53.130;8.244;2024-03-23T06:41:26;11.20;;;3.93;;
10166;SDS011;62970;53.130;8.244;2024-03-23T06:43:53;13.90;;;4.30;;
10166;SDS011;62970;53.130;8.244;2024-03-23T06:46:20;11.80;;;4.03;;
10166;SDS011;62970;53.130;8.244;2024-03-23T06:48:47;13.03;;;3.93;;
10166;SDS011;62970;53.130;8.244;2024-03-23T06:51:13;10.80;;;3.43;;
10166;SDS011;62970;53.130;8.244;2024-03-23T06:53:40;12.07;;;3.60;;
10166;SDS011;62970;53.130;8.244;2024-03-23T06:56:07;11.13;;;3.90;;
10166;SDS011;62970;53.130;8.244;2024-03-23T06:58:36;11.33;;;3.63;;
10166;SDS011;62970;53.130;8.244;2024-03-23T07:01:03;9.90;;;3.83;;
10166;SDS011;62970;53.130;8.244;2024-03-23T07:03:30;7.93;;;3.00;;
10166;SDS011;62970;53.130;8.244;2024-03-23T07:05:57;7.20;;;3.60;;
10166;SDS011;62970;53.130;8.244;2024-03-23T07:08:24;10.27;;;3.37;;
10166;SDS011;62970;53.130;8.244;2024-03-23T07:10:52;11.53;;;3.30;;
10166;SDS011;62970;53.130;8.244;2024-03-23T07:13:19;7.03;;;3.20;;
10166;SDS011;62970;53.130;8.244;2024-03-23T07:15:53;8.60;;;3.60;;
10166;SDS011;62970;53.130;8.244;2024-03-23T07:18:21;9.63;;;3.23;;
10166;SDS011;62970;53.130;8.244;2024-03-23T07:20:54;7.07;;;2.93;;
10166;SDS011;62970;53.130;8.244;2024-03-23T07:23:21;8.37;;;3.37;;
10166;SDS011;62970;53.130;8.244;2024-03-23T07:25:56;9.83;;;3.87;;
10166;SDS011;62970;53.130;8.244;2024-03-23T07:28:23;13.07;;;3.97;;
10166;SDS011;62970;53.130;8.244;2024-03-23T07:31:03;8.37;;;3.60;;
10166;SDS011;62970;53.130;8.244;2024-03-23T07:33:30;8.00;;;3.17;;
10166;SDS011;62970;53.130;8.244;2024-03-23T07:35:58;8.67;;;3.30;;
10166;SDS011;62970;53.130;8.244;2024-03-23T07:38:26;12.10;;;3.60;;
10166;SDS011;62970;53.130;8.244;2024-03-23T07:40:55;8.30;;;3.00;;
10166;SDS011;62970;53.130;8.244;2024-03-23T07:43:29;10.50;;;3.03;;
10166;SDS011;62970;53.130;8.244;2024-03-23T07:45:56;11.07;;;3.10;;
10166;SDS011;62970;53.130;8.244;2024-03-23T07:48:26;13.10;;;3.40;;
10166;SDS011;62970;53.130;8.244;2024-03-23T07:51:00;7.20;;;3.00;;
10166;SDS011;62970;53.130;8.244;2024-03-23T07:53:28;7.13;;;3.07;;
10166;SDS011;62970;53.130;8.244;2024-03-23T07:55:55;8.27;;;2.87;;
10166;SDS011;62970;53.130;8.244;2024-03-23T07:58:24;5.73;;;2.63;;
10166;SDS011;62970;53.130;8.244;2024-03-23T08:00:51;8.27;;;2.70;;
10166;SDS011;62970;53.130;8.244;2024-03-23T08:03:18;11.77;;;3.17;;
10166;SDS011;62970;53.130;8.244;2024-03-23T08:05:48;9.13;;;2.90;;
10166;SDS011;62970;53.130;8.244;2024-03-23T08:08:15;7.00;;;2.37;;
10166;SDS011;62970;53.130;8.244;2024-03-23T08:10:48;9.27;;;2.67;;
10166;SDS011;62970;53.130;8.244;2024-03-23T08:13:15;9.13;;;2.30;;
10166;SDS011;62970;53.130;8.244;2024-03-23T08:15:42;9.33;;;2.60;;
10166;SDS011;62970;53.130;8.244;2024-03-23T08:18:09;11.10;;;3.20;;
10166;SDS011;62970;53.130;8.244;2024-03-23T08:20:37;7.73;;;2.80;;
10166;SDS011;62970;53.130;8.244;2024-03-23T08:23:07;7.57;;;2.50;;
10166;SDS011;62970;53.130;8.244;2024-03-23T08:25:34;10.77;;;2.40;;
10166;SDS011;62970;53.130;8.244;2024-03-23T08:28:01;7.37;;;2.60;;
10166;SDS011;62970;53.130;8.244;2024-03-23T08:30:27;8.50;;;2.67;;
10166;SDS011;62970;53.130;8.244;2024-03-23T08:32:54;8.77;;;2.60;;
10166;SDS011;62970;53.130;8.244;2024-03-23T08:35:21;6.20;;;2.40;;
10166;SDS011;62970;53.130;8.244;2024-03-23T08:37:49;7.37;;;2.60;;
10166;SDS011;62970;53.130;8.244;2024-03-23T08:40:18;9.77;;;2.70;;
10166;SDS011;62970;53.130;8.244;2024-03-23T08:42:45;5.53;;;2.17;;
10166;SDS011;62970;53.130;8.244;2024-03-23T08:45:12;7.20;;;3.20;;
10166;SDS011;62970;53.130;8.244;2024-03-23T08:47:39;7.00;;;2.50;;
10166;SDS011;62970;53.130;8.244;2024-03-23T08:50:06;7.33;;;2.83;;
10166;SDS011;62970;53.130;8.244;2024-03-23T08:52:33;5.57;;;2.37;;
10166;SDS011;62970;53.130;8.244;2024-03-23T08:55:00;7.53;;;2.43;;
10166;SDS011;62970;53.130;8.244;2024-03-23T08:57:30;8.33;;;2.63;;
10166;SDS011;62970;53.130;8.244;2024-03-23T08:59:57;5.93;;;2.40;;
10166;SDS011;62970;53.130;8.244;2024-03-23T09:02:23;7.33;;;2.33;;
10166;SDS011;62970;53.130;8.244;2024-03-23T09:04:50;5.30;;;2.47;;
10166;SDS011;62970;53.130;8.244;2024-03-23T09:07:16;5.23;;;2.20;;
10166;SDS011;62970;53.130;8.244;2024-03-23T09:09:43;5.97;;;2.00;;
10166;SDS011;62970;53.130;8.244;2024-03-23T09:12:09;11.40;;;2.30;;
10166;SDS011;62970;53.130;8.244;2024-03-23T09:14:38;4.67;;;1.90;;
10166;SDS011;62970;53.130;8.244;2024-03-23T09:17:05;6.40;;;2.03;;
10166;SDS011;62970;53.130;8.244;2024-03-23T09:19:31;4.20;;;1.80;;
10166;SDS011;62970;53.130;8.244;2024-03-23T09:21:57;3.97;;;1.83;;
10166;SDS011;62970;53.130;8.244;2024-03-23T09:24:24;4.20;;;1.97;;
10166;SDS011;62970;53.130;8.244;2024-03-23T09:26:51;5.57;;;2.30;;
10166;SDS011;62970;53.130;8.244;2024-03-23T09:29:17;5.97;;;2.00;;
10166;SDS011;62970;53.130;8.244;2024-03-23T09:31:48;3.97;;;1.63;;
10166;SDS011;62970;53.130;8.244;2024-03-23T09:34:14;5.37;;;1.90;;
10166;SDS011;62970;53.130;8.244;2024-03-23T09:36:41;5.47;;;1.93;;
10166;SDS011;62970;53.130;8.244;2024-03-23T09:39:07;4.23;;;1.87;;
10166;SDS011;62970;53.130;8.244;2024-03-23T09:41:34;5.50;;;2.10;;
10166;SDS011;62970;53.130;8.244;2024-03-23T09:44:01;2.70;;;1.70;;
10166;SDS011;62970;53.130;8.244;2024-03-23T09:46:27;4.40;;;2.00;;
10166;SDS011;62970;53.130;8.244;2024-03-23T09:48:56;4.27;;;2.00;;
10166;SDS011;62970;53.130;8.244;2024-03-23T09:51:23;3.83;;;1.83;;
10166;SDS011;62970;53.130;8.244;2024-03-23T09:53:50;4.80;;;2.20;;
10166;SDS011;62970;53.130;8.244;2024-03-23T09:56:17;3.50;;;1.70;;
10166;SDS011;62970;53.130;8.244;2024-03-23T09:58:44;5.73;;;2.70;;
10166;SDS011;62970;53.130;8.244;2024-03-23T10:01:10;4.80;;;1.90;;
10166;SDS011;62970;53.130;8.244;2024-03-23T10:03:43;4.40;;;1.80;;
10166;SDS011;62970;53.130;8.244;2024-03-23T10:06:13;6.57;;;2.17;;
10166;SDS011;62970;53.130;8.244;2024-03-23T10:08:46;4.37;;;1.90;;
10166;SDS011;62970;53.130;8.244;2024-03-23T10:11:13;2.97;;;2.00;;
10166;SDS011;62970;53.130;8.244;2024-03-23T10:13:41;7.70;;;2.77;;
10166;SDS011;62970;53.130;8.244;2024-03-23T10:16:08;4.73;;;2.10;;
10166;SDS011;62970;53.130;8.244;2024-03-23T10:18:37;3.60;;;1.97;;
10166;SDS011;62970;53.130;8.244;2024-03-23T10:21:07;3.97;;;1.87;;
10166;SDS011;62970;53.130;8.244;2024-03-23T10:23:38;5.63;;;2.03;;
10166;SDS011;62970;53.130;8.244;2024-03-23T10:26:13;5.53;;;2.27;;
10166;SDS011;62970;53.130;8.244;2024-03-23T10:28:54;6.57;;;2.10;;
10166;SDS011;62970;53.130;8.244;2024-03-23T10:31:25;4.83;;;2.10;;
10166;SDS011;62970;53.130;8.244;2024-03-23T10:33:52;5.87;;;2.10;;
10166;SDS011;62970;53.130;8.244;2024-03-23T10:36:19;2.93;;;1.93;;
10166;SDS011;62970;53.130;8.244;2024-03-23T10:38:50;4.03;;;2.17;;
10166;SDS011;62970;53.130;8.244;2024-03-23T10:41:17;4.23;;;2.10;;
10166;SDS011;62970;53.130;8.244;2024-03-23T10:43:45;4.93;;;2.17;;
10166;SDS011;62970;53.130;8.244;2024-03-23T10:46:14;4.23;;;2.00;;
10166;SDS011;62970;53.130;8.244;2024-03-23T10:48:41;5.83;;;2.40;;
10166;SDS011;62970;53.130;8.244;2024-03-23T10:51:07;4.87;;;1.60;;
10166;SDS011;62970;53.130;8.244;2024-03-23T10:53:35;5.93;;;2.13;;
10166;SDS011;62970;53.130;8.244;2024-03-23T10:56:05;3.27;;;2.00;;
10166;SDS011;62970;53.130;8.244;2024-03-23T10:58:36;5.73;;;1.90;;
10166;SDS011;62970;53.130;8.244;2024-03-23T11:01:05;4.93;;;1.90;;
10166;SDS011;62970;53.130;8.244;2024-03-23T11:03:32;4.70;;;1.83;;
10166;SDS011;62970;53.130;8.244;2024-03-23T11:06:01;5.80;;;1.90;;
10166;SDS011;62970;53.130;8.244;2024-03-23T11:08:30;5.70;;;2.27;;
10166;SDS011;62970;53.130;8.244;2024-03-23T11:11:16;4.17;;;1.77;;
10166;SDS011;62970;53.130;8.244;2024-03-23T11:13:44;3.67;;;1.97;;
10166;SDS011;62970;53.130;8.244;2024-03-23T11:16:17;6.83;;;2.03;;
10166;SDS011;62970;53.130;8.244;2024-03-23T11:18:48;5.10;;;2.00;;
10166;SDS011;62970;53.130;8.244;2024-03-23T11:24:18;4.03;;;1.60;;
10166;SDS011;62970;53.130;8.244;2024-03-23T11:26:49;4.67;;;1.67;;
10166;SDS011;62970;53.130;8.244;2024-03-23T11:29:16;3.80;;;1.70;;
10166;SDS011;62970;53.130;8.244;2024-03-23T11:31:46;5.77;;;1.77;;
10166;SDS011;62970;53.130;8.244;2024-03-23T11:34:13;6.80;;;2.27;;
10166;SDS011;62970;53.130;8.244;2024-03-23T11:36:41;3.33;;;1.50;;
10166;SDS011;62970;53.130;8.244;2024-03-23T11:39:11;5.97;;;1.87;;
10166;SDS011;62970;53.130;8.244;2024-03-23T11:41:45;3.60;;;1.80;;
10166;SDS011;62970;53.130;8.244;2024-03-23T11:44:17;3.23;;;1.87;;
10166;SDS011;62970;53.130;8.244;2024-03-23T11:46:44;2.07;;;1.40;;
10166;SDS011;62970;53.130;8.244;2024-03-23T11:49:23;2.60;;;1.30;;
10166;SDS011;62970;53.130;8.244;2024-03-23T11:51:51;2.37;;;1.00;;
10166;SDS011;62970;53.130;8.244;2024-03-23T11:54:20;1.60;;;0.90;;
10166;SDS011;62970;53.130;8.244;2024-03-23T11:56:59;1.40;;;0.70;;
10166;SDS011;62970;53.130;8.244;2024-03-23T11:59:33;2.00;;;0.90;;
10166;SDS011;62970;53.130;8.244;2024-03-23T12:02:05;2.20;;;1.13;;
10166;SDS011;62970;53.130;8.244;2024-03-23T12:04:32;1.70;;;0.83;;
10166;SDS011;62970;53.130;8.244;2024-03-23T12:07:10;1.47;;;0.83;;
10166;SDS011;62970;53.130;8.244;2024-03-23T12:09:38;1.20;;;0.43;;
10166;SDS011;62970;53.130;8.244;2024-03-23T12:12:08;1.23;;;0.70;;
10166;SDS011;62970;53.130;8.244;2024-03-23T12:14:38;1.90;;;0.80;;
10166;SDS011;62970;53.130;8.244;2024-03-23T12:17:09;2.37;;;0.70;;
10166;SDS011;62970;53.130;8.244;2024-03-23T12:19:39;2.20;;;1.37;;
10166;SDS011;62970;53.130;8.244;2024-03-23T12:22:07;1.30;;;0.77;;
10166;SDS011;62970;53.130;8.244;2024-03-23T12:24:34;2.27;;;1.00;;
10166;SDS011;62970;53.130;8.244;2024-03-23T12:27:01;1.30;;;0.90;;
10166;SDS011;62970;53.130;8.244;2024-03-23T12:29:32;4.07;;;1.60;;
10166;SDS011;62970;53.130;8.244;2024-03-23T12:31:59;2.23;;;1.40;;
10166;SDS011;62970;53.130;8.244;2024-03-23T12:34:27;2.03;;;1.20;;
10166;SDS011;62970;53.130;8.244;2024-03-23T12:36:53;1.93;;;1.20;;
10166;SDS011;62970;53.130;8.244;2024-03-23T12:39:20;3.33;;;1.40;;
10166;SDS011;62970;53.130;8.244;2024-03-23T12:41:46;3.73;;;1.40;;
10166;SDS011;62970;53.130;8.244;2024-03-23T12:44:13;4.43;;;1.63;;
10166;SDS011;62970;53.130;8.244;2024-03-23T12:46:42;3.30;;;1.37;;
10166;SDS011;62970;53.130;8.244;2024-03-23T12:49:09;2.63;;;1.50;;
10166;SDS011;62970;53.130;8.244;2024-03-23T12:51:36;3.13;;;1.80;;
10166;SDS011;62970;53.130;8.244;2024-03-23T12:54:03;1.93;;;1.30;;
10166;SDS011;62970;53.130;8.244;2024-03-23T12:56:30;4.03;;;1.67;;
10166;SDS011;62970;53.130;8.244;2024-03-23T12:58:56;4.00;;;1.87;;
10166;SDS011;62970;53.130;8.244;2024-03-23T13:01:23;1.60;;;1.33;;
10166;SDS011;62970;53.130;8.244;2024-03-23T13:03:52;2.70;;;1.60;;
10166;SDS011;62970;53.130;8.244;2024-03-23T13:06:19;2.70;;;1.47;;
10166;SDS011;62970;53.130;8.244;2024-03-23T13:08:45;2.20;;;1.13;;
10166;SDS011;62970;53.130;8.244;2024-03-23T13:11:12;1.83;;;1.10;;
10166;SDS011;62970;53.130;8.244;2024-03-23T13:13:39;1.73;;;1.00;;
10166;SDS011;62970;53.130;8.244;2024-03-23T13:16:05;1.40;;;0.90;;
10166;SDS011;62970;53.130;8.244;2024-03-23T13:18:32;2.33;;;0.90;;
10166;SDS011;62970;53.130;8.244;2024-03-23T13:21:04;2.70;;;1.00;;
10166;SDS011;62970;53.130;8.244;2024-03-23T13:23:30;1.67;;;0.90;;
10166;SDS011;62970;53.130;8.244;2024-03-23T13:25:57;1.43;;;0.80;;
10166;SDS011;62970;53.130;8.244;2024-03-23T13:28:23;2.43;;;0.70;;
10166;SDS011;62970;53.130;8.244;2024-03-23T13:30:50;2.43;;;1.00;;
10166;SDS011;62970;53.130;8.244;2024-03-23T13:33:17;2.17;;;1.00;;
10166;SDS011;62970;53.130;8.244;2024-03-23T13:35:50;2.77;;;1.30;;
10166;SDS011;62970;53.130;8.244;2024-03-23T13:38:20;3.23;;;1.13;;
10166;SDS011;62970;53.130;8.244;2024-03-23T13:40:52;2.90;;;1.17;;
10166;SDS011;62970;53.130;8.244;2024-03-23T13:43:21;3.17;;;1.10;;
10166;SDS011;62970;53.130;8.244;2024-03-23T13:45:48;3.63;;;1.50;;
10166;SDS011;62970;53.130;8.244;2024-03-23T13:48:19;4.20;;;1.23;;
10166;SDS011;62970;53.130;8.244;2024-03-23T13:50:46;4.53;;;1.53;;
10166;SDS011;62970;53.130;8.244;2024-03-23T13:53:13;3.33;;;1.30;;
10166;SDS011;62970;53.130;8.244;2024-03-23T13:55:48;2.83;;;1.60;;
10166;SDS011;62970;53.130;8.244;2024-03-23T13:58:15;2.67;;;1.50;;
10166;SDS011;62970;53.130;8.244;2024-03-23T14:00:41;2.47;;;1.40;;
10166;SDS011;62970;53.130;8.244;2024-03-23T14:03:08;4.07;;;1.60;;
10166;SDS011;62970;53.130;8.244;2024-03-23T14:05:34;4.20;;;1.40;;
10166;SDS011;62970;53.130;8.244;2024-03-23T14:08:01;3.37;;;1.40;;
10166;SDS011;62970;53.130;8.244;2024-03-23T14:10:28;1.50;;;0.90;;
10166;SDS011;62970;53.130;8.244;2024-03-23T14:12:57;1.97;;;0.90;;
10166;SDS011;62970;53.130;8.244;2024-03-23T14:15:24;5.50;;;1.50;;
10166;SDS011;62970;53.130;8.244;2024-03-23T14:17:50;2.03;;;1.27;;
10166;SDS011;62970;53.130;8.244;2024-03-23T14:20:16;3.37;;;1.17;;
10166;SDS011;62970;53.130;8.244;2024-03-23T14:22:43;2.77;;;1.50;;
10166;SDS011;62970;53.130;8.244;2024-03-23T14:25:09;7.20;;;1.57;;
10166;SDS011;62970;53.130;8.244;2024-03-23T14:27:36;3.63;;;1.57;;
10166;SDS011;62970;53.130;8.244;2024-03-23T14:30:09;5.03;;;1.77;;
10166;SDS011;62970;53.130;8.244;2024-03-23T14:32:37;2.57;;;1.10;;
10166;SDS011;62970;53.130;8.244;2024-03-23T14:35:04;2.53;;;1.37;;
10166;SDS011;62970;53.130;8.244;2024-03-23T14:37:31;1.97;;;1.00;;
10166;SDS011;62970;53.130;8.244;2024-03-23T14:39:58;4.03;;;1.50;;
10166;SDS011;62970;53.130;8.244;2024-03-23T14:42:24;3.33;;;1.10;;
10166;SDS011;62970;53.130;8.244;2024-03-23T14:44:51;2.13;;;1.13;;
10166;SDS011;62970;53.130;8.244;2024-03-23T14:47:20;2.13;;;1.17;;
10166;SDS011;62970;53.130;8.244;2024-03-23T14:49:47;1.87;;;0.90;;
10166;SDS011;62970;53.130;8.244;2024-03-23T14:52:13;3.13;;;1.40;;
10166;SDS011;62970;53.130;8.244;2024-03-23T14:54:40;3.37;;;1.33;;
10166;SDS011;62970;53.130;8.244;2024-03-23T14:57:06;3.53;;;1.30;;
10166;SDS011;62970;53.130;8.244;2024-03-23T14:59:33;3.37;;;1.47;;
10166;SDS011;62970;53.130;8.244;2024-03-23T15:01:59;6.00;;;1.80;;
10166;SDS011;62970;53.130;8.244;2024-03-23T15:04:28;4.20;;;1.60;;
10166;SDS011;62970;53.130;8.244;2024-03-23T15:06:55;3.67;;;1.50;;
10166;SDS011;62970;53.130;8.244;2024-03-23T15:09:21;4.57;;;1.60;;
10166;SDS011;62970;53.130;8.244;2024-03-23T15:11:48;3.20;;;1.60;;
10166;SDS011;62970;53.130;8.244;2024-03-23T15:14:14;4.13;;;1.70;;
10166;SDS011;62970;53.130;8.244;2024-03-23T15:16:40;4.87;;;1.70;;
10166;SDS011;62970;53.130;8.244;2024-03-23T15:19:07;3.80;;;1.70;;
10166;SDS011;62970;53.130;8.244;2024-03-23T15:21:36;4.20;;;1.40;;
10166;SDS011;62970;53.130;8.244;2024-03-23T15:24:03;5.17;;;1.70;;
10166;SDS011;62970;53.130;8.244;2024-03-23T15:26:30;4.77;;;1.63;;
10166;SDS011;62970;53.130;8.244;2024-03-23T15:28:57;4.10;;;1.70;;
10166;SDS011;62970;53.130;8.244;2024-03-23T15:31:29;8.70;;;2.00;;
10166;SDS011;62970;53.130;8.244;2024-03-23T15:33:57;3.80;;;1.40;;
10166;SDS011;62970;53.130;8.244;2024-03-23T15:36:23;4.93;;;1.90;;
10166;SDS011;62970;53.130;8.244;2024-03-23T15:38:53;4.53;;;1.40;;
10166;SDS011;62970;53.130;8.244;2024-03-23T15:41:19;4.23;;;1.60;;